Time;durP1;ratioP1;P1;durP2;ratioP2;P2;SDS_P1;SDS_P2;PMS_P1;PMS_P2;Temp;Humidity;BMP_temperature;BMP_pressure;BME280_temperature;BME280_humidity;BME280_pressure;Samples;Min_cycle;Max_cycle;Signal;HPM_P1;HPM_P2
2023/03/19 00:02:55;;;;;;;10.05;4.07;;;16.00;42.70;;;;;;6222073;28;20120;-75
2023/03/19 00:05:56;;;;;;;11.57;3.55;;;16.10;42.10;;;;;;6220952;28;20026;-75
2023/03/19 00:08:57;;;;;;;11.30;4.03;;;16.10;42.00;;;;;;6222334;28;20026;-72
2023/03/19 00:11:58;;;;;;;12.07;3.33;;;16.10;42.10;;;;;;6220717;28;20126;-74
2023/03/19 00:15:00;;;;;;;7.82;4.00;;;16.10;42.10;;;;;;6220507;28;20679;-73
2023/03/19 00:18:01;;;;;;;9.02;3.55;;;16.10;42.10;;;;;;6221694;28;20491;-73
2023/03/19 00:21:02;;;;;;;5.20;3.47;;;16.10;42.10;;;;;;6219811;28;20029;-75
2023/03/19 00:24:03;;;;;;;9.57;3.50;;;16.10;42.30;;;;;;6220664;28;20030;-73
2023/03/19 00:27:05;;;;;;;7.85;3.70;;;16.10;42.40;;;;;;6221868;28;20034;-72
2023/03/19 00:30:07;;;;;;;8.90;4.28;;;16.00;42.50;;;;;;6220414;28;20037;-74
2023/03/19 00:33:08;;;;;;;11.85;3.92;;;16.00;42.60;;;;;;6222316;28;20112;-74
2023/03/19 00:36:10;;;;;;;6.85;3.70;;;16.00;42.60;;;;;;6221271;28;20032;-74
2023/03/19 00:39:12;;;;;;;12.82;4.15;;;16.00;42.70;;;;;;6225084;28;20384;-74
2023/03/19 00:42:13;;;;;;;17.00;4.60;;;16.00;42.70;;;;;;6233876;28;20045;-72
2023/03/19 00:45:15;;;;;;;11.18;4.13;;;16.00;42.70;;;;;;6222486;28;20018;-75
2023/03/19 00:48:16;;;;;;;9.60;3.63;;;16.00;42.70;;;;;;6219915;28;20435;-75
2023/03/19 00:51:17;;;;;;;8.00;4.07;;;16.00;42.80;;;;;;6219390;28;20032;-73
2023/03/19 00:54:18;;;;;;;12.00;4.38;;;16.00;42.80;;;;;;6203895;28;20030;-73
2023/03/19 00:57:19;;;;;;;12.25;4.55;;;16.00;42.90;;;;;;6204413;28;20034;-73
2023/03/19 01:00:21;;;;;;;9.85;4.30;;;16.00;42.90;;;;;;6221521;28;20129;-75
2023/03/19 01:03:22;;;;;;;8.73;4.07;;;16.00;43.00;;;;;;6204031;28;20030;-73
2023/03/19 01:06:23;;;;;;;7.55;3.88;;;15.90;43.00;;;;;;6220344;28;20435;-72
2023/03/19 01:09:24;;;;;;;10.15;4.35;;;15.90;43.00;;;;;;6220911;28;20030;-72
2023/03/19 01:12:25;;;;;;;16.70;4.00;;;15.90;43.00;;;;;;6220716;28;20078;-72
2023/03/19 01:15:27;;;;;;;7.72;3.55;;;15.90;43.00;;;;;;6220560;28;20113;-72
2023/03/19 01:18:27;;;;;;;7.88;3.33;;;15.90;43.10;;;;;;6220169;28;20022;-73
2023/03/19 01:21:32;;;;;;;11.05;4.45;;;15.80;43.10;;;;;;6220199;28;20036;-75
2023/03/19 01:24:33;;;;;;;8.90;3.85;;;15.80;43.20;;;;;;6218621;28;20034;-72
2023/03/19 01:27:34;;;;;;;15.45;4.88;;;15.70;43.20;;;;;;6202068;28;20041;-73
2023/03/19 01:30:39;;;;;;;8.77;3.85;;;15.70;43.40;;;;;;6202279;28;20034;-74
2023/03/19 01:33:46;;;;;;;8.25;3.55;;;15.70;43.80;;;;;;6220572;28;20092;-72
2023/03/19 01:37:06;;;;;;;13.02;4.63;;;15.50;43.90;;;;;;6204537;28;20446;-72
2023/03/19 01:40:12;;;;;;;16.48;3.63;;;15.40;44.20;;;;;;6218729;28;20037;-75
2023/03/19 01:43:18;;;;;;;10.23;3.40;;;15.40;44.40;;;;;;6218882;28;20036;-73
2023/03/19 01:46:51;;;;;;;4.38;3.00;;;15.30;44.70;;;;;;6108886;29;20063;-72
2023/03/19 01:50:43;;;;;;;11.38;3.47;;;15.20;44.80;;;;;;6120357;29;20055;-73
2023/03/19 01:54:04;;;;;;;6.68;3.33;;;15.10;45.00;;;;;;6120241;29;20046;-73
2023/03/19 01:57:14;;;;;;;10.43;3.75;;;15.10;45.10;;;;;;6119498;29;20058;-73
2023/03/19 02:00:34;;;;;;;15.20;3.63;;;15.10;45.10;;;;;;6120642;29;20035;-73
2023/03/19 02:03:37;;;;;;;6.78;3.90;;;15.10;45.10;;;;;;6120152;29;20039;-75
2023/03/19 02:06:55;;;;;;;8.68;3.75;;;15.10;45.40;;;;;;6104004;29;20544;-73
2023/03/19 02:09:58;;;;;;;8.40;3.83;;;15.00;45.30;;;;;;6119380;29;20048;-72
2023/03/19 02:12:59;;;;;;;11.30;4.00;;;15.10;45.50;;;;;;6119641;29;20071;-72
2023/03/19 02:16:01;;;;;;;10.40;4.38;;;15.00;45.70;;;;;;6119398;29;20137;-73
2023/03/19 02:19:03;;;;;;;5.95;3.00;;;15.10;45.80;;;;;;6080292;29;20124;-74
2023/03/19 02:22:05;;;;;;;8.63;3.90;;;15.00;45.60;;;;;;6160283;28;20064;-71
2023/03/19 02:25:18;;;;;;;10.10;3.67;;;15.00;45.60;;;;;;6201564;28;20095;-77
2023/03/19 02:28:21;;;;;;;8.38;3.53;;;15.00;45.50;;;;;;6216809;28;20053;-73
2023/03/19 02:31:26;;;;;;;12.65;3.35;;;15.00;45.50;;;;;;6217225;28;20125;-73
2023/03/19 02:34:34;;;;;;;7.30;3.42;;;15.00;45.50;;;;;;6218493;28;20360;-72
2023/03/19 02:37:35;;;;;;;6.30;3.55;;;15.10;45.50;;;;;;6200515;28;20032;-74
2023/03/19 02:40:58;;;;;;;6.03;3.15;;;15.00;45.50;;;;;;6218341;28;20435;-73
2023/03/19 02:44:03;;;;;;;8.88;3.17;;;15.00;45.50;;;;;;6200091;28;20276;-72
2023/03/19 02:47:05;;;;;;;6.97;3.42;;;15.00;45.50;;;;;;6200805;28;20034;-73
2023/03/19 02:50:06;;;;;;;7.53;3.60;;;15.00;45.50;;;;;;6200927;28;20514;-72
2023/03/19 02:53:07;;;;;;;10.80;4.13;;;15.00;45.60;;;;;;6218282;28;20030;-73
2023/03/19 02:56:08;;;;;;;8.98;3.75;;;15.00;45.60;;;;;;6218052;28;20038;-74
2023/03/19 02:59:09;;;;;;;6.80;3.15;;;15.00;46.30;;;;;;6216565;28;20030;-72
2023/03/19 03:02:11;;;;;;;7.72;3.22;;;14.90;45.60;;;;;;6217039;28;20178;-74
2023/03/19 03:05:13;;;;;;;9.68;3.40;;;15.00;45.60;;;;;;6216556;28;20449;-71
2023/03/19 03:08:14;;;;;;;9.60;3.13;;;15.00;45.60;;;;;;6221116;28;20026;-73
2023/03/19 03:11:16;;;;;;;6.88;3.50;;;15.00;45.80;;;;;;6221887;28;20075;-74
2023/03/19 03:14:17;;;;;;;7.43;3.00;;;15.00;45.80;;;;;;6221121;28;20533;-72
2023/03/19 03:17:18;;;;;;;10.65;3.55;;;15.00;45.80;;;;;;6197320;28;20129;-72
2023/03/19 03:20:21;;;;;;;8.35;3.30;;;14.90;45.70;;;;;;6216535;28;20472;-73
2023/03/19 03:23:22;;;;;;;13.20;2.95;;;14.90;45.70;;;;;;6221769;28;20531;-74
2023/03/19 03:26:23;;;;;;;8.02;3.28;;;15.00;45.80;;;;;;6224076;28;20022;-74
2023/03/19 03:29:24;;;;;;;10.48;3.50;;;15.00;45.80;;;;;;6227312;28;20041;-71
2023/03/19 03:32:26;;;;;;;6.28;3.40;;;14.90;45.80;;;;;;6231465;28;20038;-71
2023/03/19 03:35:27;;;;;;;5.82;3.05;;;14.90;45.90;;;;;;6224050;28;20161;-74
2023/03/19 03:38:28;;;;;;;10.88;3.00;;;14.90;46.10;;;;;;6204849;28;20640;-73
2023/03/19 03:41:29;;;;;;;5.78;3.03;;;14.90;46.20;;;;;;6221463;28;20394;-74
2023/03/19 03:44:30;;;;;;;9.13;3.80;;;14.90;46.40;;;;;;6221297;28;20439;-73
2023/03/19 03:47:32;;;;;;;6.50;3.10;;;14.90;46.50;;;;;;6220919;28;20033;-74
2023/03/19 03:50:33;;;;;;;8.20;3.80;;;14.90;46.40;;;;;;6221330;28;20041;-74
2023/03/19 03:53:40;;;;;;;5.57;2.60;;;14.90;46.30;;;;;;6197435;28;20038;-74
2023/03/19 03:56:41;;;;;;;6.10;2.65;;;14.90;46.20;;;;;;6198735;28;20026;-73
2023/03/19 03:59:42;;;;;;;5.55;2.40;;;15.00;46.20;;;;;;6197539;28;20561;-73
2023/03/19 04:02:43;;;;;;;7.47;3.25;;;15.00;46.00;;;;;;6196865;28;20081;-73
2023/03/19 04:05:48;;;;;;;7.38;2.65;;;15.00;45.90;;;;;;6196458;28;20067;-73
2023/03/19 04:08:49;;;;;;;4.72;2.70;;;15.00;45.90;;;;;;6180140;28;20026;-74
2023/03/19 04:11:50;;;;;;;5.95;2.40;;;15.00;45.80;;;;;;6207959;28;20042;-73
2023/03/19 04:14:51;;;;;;;6.38;2.50;;;15.10;45.90;;;;;;6220086;28;20131;-72
2023/03/19 04:17:53;;;;;;;4.43;2.70;;;15.10;45.80;;;;;;6224308;28;20034;-73
2023/03/19 04:20:54;;;;;;;4.82;2.47;;;15.10;45.90;;;;;;6219977;28;20022;-73
2023/03/19 04:23:55;;;;;;;6.97;2.97;;;15.00;45.90;;;;;;6220502;28;20463;-74
2023/03/19 04:26:56;;;;;;;4.32;2.30;;;15.00;46.00;;;;;;6220099;28;20033;-73
2023/03/19 04:29:57;;;;;;;7.22;2.35;;;15.00;46.10;;;;;;6219620;28;20045;-72
2023/03/19 04:32:59;;;;;;;7.60;2.72;;;15.00;46.20;;;;;;6220157;28;20457;-72
2023/03/19 04:36:02;;;;;;;4.55;2.50;;;14.90;46.20;;;;;;6220288;28;20422;-72
2023/03/19 04:39:03;;;;;;;10.93;2.50;;;14.90;46.30;;;;;;6220247;28;20034;-74
2023/03/19 04:42:04;;;;;;;7.03;2.85;;;14.90;46.40;;;;;;6220065;28;20060;-73
2023/03/19 04:45:10;;;;;;;4.43;2.70;;;14.90;46.50;;;;;;6220268;28;20056;-72
2023/03/19 04:48:11;;;;;;;7.13;1.90;;;14.90;46.50;;;;;;6219303;28;20554;-74
2023/03/19 04:51:13;;;;;;;3.45;2.22;;;14.90;46.50;;;;;;6219525;28;20022;-73
2023/03/19 04:54:15;;;;;;;4.50;2.50;;;14.90;46.60;;;;;;6221088;28;20034;-74
2023/03/19 04:57:16;;;;;;;5.95;2.78;;;14.90;46.70;;;;;;6219410;28;20513;-73
2023/03/19 05:00:20;;;;;;;7.80;2.80;;;14.90;46.60;;;;;;6219396;28;20026;-73
2023/03/19 05:03:23;;;;;;;5.30;2.30;;;14.90;46.70;;;;;;6219389;28;20042;-73
2023/03/19 05:06:25;;;;;;;3.70;2.08;;;14.90;46.60;;;;;;6203209;28;20080;-72
2023/03/19 05:09:29;;;;;;;7.47;2.80;;;14.90;46.50;;;;;;6196583;28;20038;-72
2023/03/19 05:12:30;;;;;;;3.67;2.03;;;14.90;46.50;;;;;;6213410;28;20030;-72
2023/03/19 05:15:32;;;;;;;4.15;2.30;;;14.90;46.50;;;;;;6219706;28;20026;-73
2023/03/19 05:18:39;;;;;;;7.90;2.60;;;14.90;46.50;;;;;;6218788;28;20125;-74
2023/03/19 05:21:41;;;;;;;9.68;2.67;;;14.90;46.60;;;;;;6219052;28;20026;-71
2023/03/19 05:24:43;;;;;;;6.28;3.00;;;14.90;46.60;;;;;;6202814;28;20029;-73
2023/03/19 05:27:44;;;;;;;3.90;2.13;;;14.90;46.60;;;;;;6218813;28;20030;-73
2023/03/19 05:30:51;;;;;;;3.83;2.60;;;15.00;46.70;;;;;;6217829;28;20038;-74
2023/03/19 05:33:59;;;;;;;7.32;2.40;;;14.90;46.70;;;;;;6203585;28;20076;-72
2023/03/19 05:37:02;;;;;;;5.75;2.67;;;14.90;46.70;;;;;;6202238;28;20053;-74
2023/03/19 05:40:05;;;;;;;6.00;2.70;;;15.00;46.80;;;;;;6218506;28;20117;-74
2023/03/19 05:43:08;;;;;;;4.57;2.38;;;15.00;46.90;;;;;;6202291;28;20037;-75
2023/03/19 05:46:10;;;;;;;7.95;2.85;;;15.00;46.90;;;;;;6218119;28;20132;-72
2023/03/19 05:49:11;;;;;;;26.95;3.10;;;15.10;47.20;;;;;;6217518;28;20067;-74
2023/03/19 05:52:12;;;;;;;11.73;2.65;;;15.00;47.40;;;;;;6218375;28;20033;-72
2023/03/19 05:55:13;;;;;;;9.98;2.70;;;15.00;47.70;;;;;;6218036;28;20338;-73
2023/03/19 05:58:18;;;;;;;4.90;2.40;;;14.90;47.90;;;;;;6201353;28;20048;-73
2023/03/19 06:01:21;;;;;;;10.80;2.95;;;14.90;48.30;;;;;;6200707;28;20038;-74
2023/03/19 06:04:22;;;;;;;6.00;2.63;;;14.90;48.50;;;;;;6205158;28;20041;-74
2023/03/19 06:07:24;;;;;;;5.68;2.63;;;14.90;48.70;;;;;;6215188;28;20446;-74
2023/03/19 06:10:26;;;;;;;6.82;2.63;;;14.80;48.70;;;;;;6220612;28;20448;-73
2023/03/19 06:13:29;;;;;;;5.53;2.13;;;14.80;48.80;;;;;;6214523;28;20078;-73
2023/03/19 06:16:33;;;;;;;6.20;2.97;;;14.80;48.70;;;;;;6221207;28;20125;-73
2023/03/19 06:19:35;;;;;;;4.53;2.42;;;14.80;49.00;;;;;;6201203;28;20112;-73
2023/03/19 06:22:39;;;;;;;4.82;2.60;;;14.80;49.10;;;;;;6217254;28;20421;-72
2023/03/19 06:25:40;;;;;;;7.38;1.88;;;14.80;49.10;;;;;;6216723;28;20122;-75
2023/03/19 06:28:41;;;;;;;3.75;2.45;;;14.80;49.20;;;;;;6215623;28;20030;-73
2023/03/19 06:31:42;;;;;;;10.55;2.47;;;14.80;49.30;;;;;;6199860;28;20034;-74
2023/03/19 06:34:52;;;;;;;2.85;2.00;;;14.90;49.30;;;;;;6215751;28;20045;-73
2023/03/19 06:37:53;;;;;;;6.03;2.47;;;14.90;49.40;;;;;;6215643;28;20057;-73
2023/03/19 06:40:54;;;;;;;8.18;2.33;;;14.90;49.40;;;;;;6216262;28;20034;-74
2023/03/19 06:43:55;;;;;;;8.15;2.65;;;14.90;49.40;;;;;;6216597;28;20047;-72
2023/03/19 06:46:56;;;;;;;5.30;2.38;;;14.90;49.60;;;;;;6217069;28;20026;-72
2023/03/19 06:49:58;;;;;;;4.05;1.92;;;14.90;49.70;;;;;;6217114;28;20091;-71
2023/03/19 06:52:59;;;;;;;7.82;2.17;;;14.90;50.00;;;;;;6219309;28;20038;-73
2023/03/19 06:56:02;;;;;;;7.43;2.60;;;14.90;50.10;;;;;;6217203;28;20045;-73
2023/03/19 06:59:03;;;;;;;4.45;2.28;;;14.90;50.20;;;;;;6159202;28;1184589;-73
2023/03/19 07:02:05;;;;;;;3.28;2.13;;;14.90;50.30;;;;;;6217351;28;20490;-72
2023/03/19 07:05:06;;;;;;;6.70;2.67;;;14.90;50.50;;;;;;6216648;28;20061;-73
2023/03/19 07:08:10;;;;;;;8.35;2.42;;;14.90;50.60;;;;;;6218137;28;20080;-75
2023/03/19 07:11:13;;;;;;;2.97;2.13;;;14.90;50.90;;;;;;6217033;28;20037;-73
2023/03/19 07:14:14;;;;;;;4.70;2.45;;;14.80;51.10;;;;;;6217252;28;20160;-73
2023/03/19 07:17:15;;;;;;;6.00;2.35;;;14.80;51.30;;;;;;6216673;28;20541;-74
2023/03/19 07:20:16;;;;;;;11.52;2.40;;;14.80;51.40;;;;;;6208361;28;20089;-71
2023/03/19 07:23:17;;;;;;;4.68;2.30;;;14.80;51.50;;;;;;6176514;28;20549;-71
2023/03/19 07:26:18;;;;;;;7.55;3.08;;;14.80;51.60;;;;;;6192733;28;20105;-74
2023/03/19 07:29:20;;;;;;;9.02;2.50;;;14.90;51.70;;;;;;6192509;28;20031;-74
2023/03/19 07:32:22;;;;;;;5.82;2.53;;;14.90;52.10;;;;;;6216591;28;20034;-74
2023/03/19 07:35:23;;;;;;;9.57;2.58;;;14.90;52.20;;;;;;6218235;28;20112;-73
2023/03/19 07:38:24;;;;;;;5.55;2.70;;;14.90;52.40;;;;;;6218697;28;20668;-72
2023/03/19 07:41:25;;;;;;;3.13;2.08;;;15.00;52.80;;;;;;6218386;28;20533;-73
2023/03/19 07:44:27;;;;;;;7.95;2.60;;;15.00;52.90;;;;;;6216396;28;20025;-73
2023/03/19 07:47:28;;;;;;;8.93;2.65;;;15.00;53.20;;;;;;6217685;28;20069;-72
2023/03/19 07:50:30;;;;;;;11.35;2.80;;;15.00;53.50;;;;;;6217762;28;20399;-74
2023/03/19 07:53:31;;;;;;;5.75;2.63;;;15.00;53.70;;;;;;6219518;28;20030;-73
2023/03/19 07:56:32;;;;;;;3.78;2.40;;;15.00;53.80;;;;;;6220606;28;20041;-73
2023/03/19 07:59:34;;;;;;;10.52;3.03;;;15.00;53.90;;;;;;6221664;28;20334;-72
2023/03/19 08:02:35;;;;;;;5.05;2.15;;;15.10;54.10;;;;;;6220981;28;20030;-74
2023/03/19 08:05:36;;;;;;;5.60;2.75;;;15.10;54.40;;;;;;6220909;28;20045;-73
2023/03/19 08:08:37;;;;;;;5.22;2.80;;;15.10;54.80;;;;;;6203919;28;20117;-74
2023/03/19 08:11:38;;;;;;;6.50;3.00;;;15.10;55.10;;;;;;6220148;28;20478;-76
2023/03/19 08:14:39;;;;;;;7.95;3.70;;;15.10;55.50;;;;;;6221484;28;20104;-75
2023/03/19 08:17:41;;;;;;;6.00;2.70;;;15.00;55.80;;;;;;6221442;28;20029;-71
2023/03/19 08:20:44;;;;;;;9.52;2.55;;;15.10;55.90;;;;;;6220994;28;20017;-74
2023/03/19 08:23:45;;;;;;;3.28;2.00;;;15.10;55.80;;;;;;6220020;28;20076;-75
2023/03/19 08:26:46;;;;;;;7.55;2.78;;;15.20;55.70;;;;;;6221177;28;20379;-72
2023/03/19 08:29:47;;;;;;;5.75;2.50;;;15.20;55.70;;;;;;6221287;28;20034;-73
2023/03/19 08:32:49;;;;;;;5.63;2.42;;;15.30;55.80;;;;;;6219976;28;20555;-72
2023/03/19 08:35:50;;;;;;;4.22;2.75;;;15.30;55.80;;;;;;6220072;28;20049;-74
2023/03/19 08:38:53;;;;;;;7.30;2.88;;;15.30;55.90;;;;;;6219823;28;20466;-73
2023/03/19 08:41:54;;;;;;;8.48;3.05;;;15.40;56.00;;;;;;6220993;28;20026;-73
2023/03/19 08:44:55;;;;;;;4.88;3.22;;;15.30;56.00;;;;;;6219724;28;20129;-75
2023/03/19 08:47:57;;;;;;;8.27;3.53;;;15.30;56.30;;;;;;6219809;28;20459;-74
2023/03/19 08:51:01;;;;;;;11.07;3.45;;;15.40;56.70;;;;;;6220974;28;20479;-74
2023/03/19 08:54:02;;;;;;;9.45;3.42;;;15.30;56.80;;;;;;6207262;28;20451;-74
2023/03/19 08:57:03;;;;;;;10.43;3.95;;;15.40;57.10;;;;;;6216577;28;20447;-72
2023/03/19 09:00:08;;;;;;;11.48;4.10;;;15.40;57.10;;;;;;6222860;28;20144;-74
2023/03/19 09:03:09;;;;;;;11.10;4.10;;;15.40;57.30;;;;;;6219486;28;20084;-75
2023/03/19 09:06:13;;;;;;;10.57;4.30;;;15.40;57.30;;;;;;6218021;28;20041;-73
2023/03/19 09:09:14;;;;;;;12.82;4.05;;;15.40;57.20;;;;;;6220789;28;20115;-73
2023/03/19 09:12:17;;;;;;;9.55;3.70;;;15.40;57.30;;;;;;6220253;28;20038;-73
2023/03/19 09:15:19;;;;;;;6.05;4.32;;;15.30;57.20;;;;;;6222225;28;20548;-74
2023/03/19 09:18:22;;;;;;;6.80;3.67;;;15.30;57.20;;;;;;6221774;28;20041;-72
2023/03/19 09:21:23;;;;;;;10.30;4.05;;;15.40;57.20;;;;;;6221757;28;20435;-71
2023/03/19 09:24:25;;;;;;;7.60;4.00;;;15.40;57.30;;;;;;6202461;28;20037;-71
2023/03/19 09:27:27;;;;;;;14.48;3.72;;;15.40;57.30;;;;;;6218263;28;20076;-75
2023/03/19 09:30:28;;;;;;;5.60;3.40;;;15.40;57.20;;;;;;6219727;28;20478;-73
2023/03/19 09:33:29;;;;;;;7.28;3.97;;;15.50;57.10;;;;;;6219907;28;20096;-72
2023/03/19 09:36:30;;;;;;;9.38;4.65;;;15.60;57.20;;;;;;6201768;28;20062;-72
2023/03/19 09:39:32;;;;;;;7.25;3.83;;;15.70;57.30;;;;;;6219593;28;20116;-74
2023/03/19 09:42:54;;;;;;;7.68;4.75;;;15.70;57.20;;;;;;6218018;28;20119;-74
2023/03/19 09:45:56;;;;;;;7.15;4.22;;;15.70;57.20;;;;;;6219584;28;20088;-74
2023/03/19 09:49:19;;;;;;;23.00;9.73;;;15.80;57.20;;;;;;6219226;28;20244;-75
2023/03/19 09:52:44;;;;;;;8.82;5.00;;;15.90;57.10;;;;;;6219675;28;20043;-74
2023/03/19 09:55:48;;;;;;;8.68;4.70;;;15.90;56.90;;;;;;6210372;28;20159;-74
2023/03/19 09:58:49;;;;;;;10.23;4.10;;;16.00;56.90;;;;;;6228045;28;20040;-74
2023/03/19 10:02:23;;;;;;;11.95;4.30;;;16.00;56.80;;;;;;6202681;28;20025;-73
2023/03/19 10:05:50;;;;;;;12.32;4.28;;;16.00;56.80;;;;;;6120204;29;20051;-74
2023/03/19 10:08:54;;;;;;;8.73;4.03;;;16.00;56.80;;;;;;6104407;29;20497;-74
2023/03/19 10:12:32;;;;;;;8.93;4.28;;;16.00;56.70;;;;;;6119914;29;20137;-72
2023/03/19 10:15:36;;;;;;;5.45;3.88;;;16.10;56.70;;;;;;6119805;29;20058;-72
2023/03/19 10:18:41;;;;;;;6.43;3.85;;;16.20;56.60;;;;;;6119131;29;20484;-74
2023/03/19 10:21:55;;;;;;;6.63;3.55;;;16.20;56.40;;;;;;6120169;29;20135;-72
2023/03/19 10:24:58;;;;;;;10.85;3.78;;;16.30;56.60;;;;;;6088012;29;20035;-73
2023/03/19 10:28:10;;;;;;;13.25;4.20;;;16.30;56.10;;;;;;6119275;29;20046;-74
2023/03/19 10:31:23;;;;;;;6.40;3.42;;;16.40;56.00;;;;;;6120115;29;20424;-74
2023/03/19 10:34:33;;;;;;;5.57;2.55;;;16.50;55.70;;;;;;6119797;29;20035;-72
2023/03/19 10:37:35;;;;;;;9.25;3.42;;;16.60;55.40;;;;;;6119710;29;20497;-75
2023/03/19 10:40:50;;;;;;;6.25;3.22;;;16.70;55.10;;;;;;6119594;29;20058;-75
2023/03/19 10:44:00;;;;;;;3.65;2.30;;;16.80;54.80;;;;;;6210398;28;20121;-74
2023/03/19 10:47:24;;;;;;;4.60;2.83;;;17.00;54.40;;;;;;6216003;28;20501;-72
2023/03/19 10:50:33;;;;;;;6.30;2.40;;;17.00;53.90;;;;;;6218561;28;20469;-73
2023/03/19 10:53:36;;;;;;;5.85;2.65;;;17.10;53.60;;;;;;6219075;28;20030;-74
2023/03/19 10:56:45;;;;;;;7.03;2.70;;;17.10;53.40;;;;;;6218724;28;20037;-75
2023/03/19 10:59:46;;;;;;;8.55;2.63;;;17.30;53.40;;;;;;6216280;28;20367;-74
2023/03/19 11:02:52;;;;;;;4.00;2.40;;;17.50;53.10;;;;;;6216604;28;20044;-73
2023/03/19 11:06:17;;;;;;;8.10;2.60;;;17.70;53.10;;;;;;6201019;28;20113;-73
2023/03/19 11:09:31;;;;;;;7.85;2.67;;;17.80;52.00;;;;;;6216309;28;20038;-73
2023/03/19 11:12:36;;;;;;;7.25;3.03;;;17.80;51.70;;;;;;6216504;28;20355;-73
2023/03/19 11:15:38;;;;;;;8.82;3.53;;;17.80;51.60;;;;;;6216539;28;20054;-74
2023/03/19 11:18:39;;;;;;;8.98;2.60;;;17.80;51.50;;;;;;6216279;28;20026;-74
2023/03/19 11:21:40;;;;;;;8.95;2.88;;;17.80;51.50;;;;;;6216580;28;20046;-73
2023/03/19 11:24:47;;;;;;;11.07;2.60;;;17.80;51.50;;;;;;6216417;28;20510;-71
2023/03/19 11:28:00;;;;;;;4.47;2.75;;;17.90;51.50;;;;;;6217366;28;20474;-75
2023/03/19 11:31:02;;;;;;;5.63;2.88;;;17.90;51.30;;;;;;6225226;28;20030;-73
2023/03/19 11:34:27;;;;;;;5.97;2.20;;;18.10;51.10;;;;;;6219428;28;20132;-77
2023/03/19 11:37:53;;;;;;;4.53;1.77;;;18.10;50.80;;;;;;6231764;28;20041;-75
2023/03/19 11:40:57;;;;;;;4.50;2.05;;;18.30;50.30;;;;;;6224555;28;20530;-72
2023/03/19 11:44:00;;;;;;;6.47;3.28;;;18.50;49.60;;;;;;6222522;28;20030;-74
2023/03/19 11:47:31;;;;;;;5.22;2.63;;;18.70;49.50;;;;;;6221497;28;20078;-75
2023/03/19 11:51:01;;;;;;;8.63;2.08;;;18.90;49.00;;;;;;6222792;28;20417;-75
2023/03/19 11:54:12;;;;;;;3.95;2.50;;;19.10;48.70;;;;;;6180936;28;20045;-75
2023/03/19 11:57:31;;;;;;;5.80;2.00;;;19.50;48.00;;;;;;6196043;28;20034;-74
2023/03/19 12:00:45;;;;;;;5.53;2.50;;;20.20;47.10;;;;;;6180056;28;20089;-73
2023/03/19 12:04:14;;;;;;;4.53;1.67;;;21.20;44.60;;;;;;6197948;28;20053;-75
2023/03/19 12:07:21;;;;;;;2.95;1.33;;;22.00;42.90;;;;;;6196454;28;20038;-73
2023/03/19 12:10:37;;;;;;;3.65;1.40;;;22.50;41.10;;;;;;6197747;28;20030;-73
2023/03/19 12:14:07;;;;;;;5.78;1.70;;;22.40;40.50;;;;;;6220778;28;20026;-74
2023/03/19 12:17:58;;;;;;;3.10;1.58;;;22.30;40.20;;;;;;6221708;28;20701;-75
2023/03/19 12:21:18;;;;;;;3.90;1.33;;;21.90;40.70;;;;;;6126301;29;20035;-72
2023/03/19 12:24:38;;;;;;;2.85;1.63;;;21.40;41.10;;;;;;6122552;29;20043;-73
2023/03/19 12:28:07;;;;;;;3.45;0.95;;;21.00;42.30;;;;;;6121922;29;20049;-74
2023/03/19 12:31:30;;;;;;;4.85;1.20;;;20.70;42.00;;;;;;6122440;29;20217;-73
2023/03/19 12:34:56;;;;;;;2.60;1.20;;;20.60;42.10;;;;;;6122141;29;20226;-75
2023/03/19 12:38:00;;;;;;;3.85;1.27;;;20.50;42.10;;;;;;6123632;28;20043;-73
2023/03/19 12:41:19;;;;;;;3.83;1.48;;;20.30;42.10;;;;;;6121528;29;20059;-74
2023/03/19 12:44:29;;;;;;;2.67;1.48;;;20.30;42.30;;;;;;6105990;29;20460;-74
2023/03/19 12:47:39;;;;;;;7.32;1.80;;;20.40;42.30;;;;;;6121691;29;20036;-73
2023/03/19 12:50:45;;;;;;;7.43;1.50;;;20.70;42.00;;;;;;6106128;29;20074;-73
2023/03/19 12:53:55;;;;;;;6.82;1.38;;;21.20;41.00;;;;;;6122832;29;20062;-75
2023/03/19 12:57:19;;;;;;;6.03;1.23;;;21.30;40.30;;;;;;6153932;28;20038;-74
2023/03/19 13:00:23;;;;;;;5.40;1.25;;;21.30;40.10;;;;;;6225204;28;20065;-73
2023/03/19 13:03:35;;;;;;;2.70;1.00;;;21.20;40.30;;;;;;6224158;28;20106;-73
2023/03/19 13:06:43;;;;;;;3.13;1.60;;;21.00;40.40;;;;;;6220404;28;20038;-73
2023/03/19 13:10:05;;;;;;;3.78;1.08;;;20.90;40.50;;;;;;6221185;28;20026;-73
2023/03/19 13:13:16;;;;;;;4.72;1.67;;;20.70;40.60;;;;;;6219648;28;20029;-73
2023/03/19 13:16:25;;;;;;;5.88;1.40;;;20.50;40.80;;;;;;6220518;28;20435;-73
2023/03/19 13:19:45;;;;;;;3.97;1.30;;;20.40;40.90;;;;;;6219121;28;20053;-75
2023/03/19 13:23:00;;;;;;;4.90;1.40;;;20.30;41.00;;;;;;6220650;28;20106;-72
2023/03/19 13:26:08;;;;;;;3.88;1.83;;;20.20;41.30;;;;;;6219704;28;20080;-73
2023/03/19 13:29:21;;;;;;;9.15;2.20;;;20.10;41.60;;;;;;6220403;28;20065;-74
2023/03/19 13:32:28;;;;;;;3.60;1.92;;;20.10;41.80;;;;;;6220318;28;20026;-73
2023/03/19 13:35:51;;;;;;;5.15;1.63;;;20.10;41.90;;;;;;6220502;28;20029;-74
2023/03/19 13:38:52;;;;;;;3.60;1.67;;;20.40;41.90;;;;;;6218764;28;20034;-74
2023/03/19 13:42:06;;;;;;;11.45;1.70;;;20.80;41.40;;;;;;6220348;28;20038;-74
2023/03/19 13:45:36;;;;;;;4.90;1.45;;;21.30;40.80;;;;;;6218918;28;20478;-73
2023/03/19 13:48:48;;;;;;;2.13;1.27;;;21.50;40.30;;;;;;6218729;28;20026;-73
2023/03/19 13:51:50;;;;;;;2.03;1.40;;;21.70;40.00;;;;;;6219397;28;20049;-75
2023/03/19 13:54:57;;;;;;;2.65;1.38;;;21.80;39.70;;;;;;6202647;28;20026;-73
2023/03/19 13:58:11;;;;;;;2.45;1.00;;;21.80;39.70;;;;;;6218466;28;20037;-72
2023/03/19 14:01:46;;;;;;;1.55;0.90;;;21.80;39.50;;;;;;6219898;28;20033;-72
2023/03/19 14:04:54;;;;;;;5.30;1.27;;;21.80;39.30;;;;;;6104396;29;20335;-73
2023/03/19 14:07:55;;;;;;;3.10;1.63;;;21.80;38.90;;;;;;6121526;29;20095;-74
2023/03/19 14:10:59;;;;;;;5.55;1.33;;;21.60;39.00;;;;;;6123160;29;20036;-74
2023/03/19 14:14:04;;;;;;;1.50;1.00;;;21.50;39.30;;;;;;6121567;29;20175;-73
2023/03/19 14:17:15;;;;;;;1.05;0.95;;;21.40;39.40;;;;;;6107859;29;20519;-73
2023/03/19 14:20:16;;;;;;;1.65;1.20;;;21.40;39.50;;;;;;6126476;29;20056;-73
2023/03/19 14:23:25;;;;;;;2.10;1.15;;;21.40;39.60;;;;;;6121785;29;20035;-76
2023/03/19 14:26:30;;;;;;;1.90;0.90;;;21.30;39.60;;;;;;6120627;29;20149;-74
2023/03/19 14:29:34;;;;;;;3.63;1.55;;;21.20;39.60;;;;;;6101997;29;20087;-74
2023/03/19 14:32:41;;;;;;;3.30;1.20;;;21.00;39.70;;;;;;6096885;29;20213;-73
2023/03/19 14:35:47;;;;;;;3.90;1.33;;;20.80;39.90;;;;;;6118392;29;20130;-74
2023/03/19 14:38:55;;;;;;;3.47;1.27;;;20.80;40.10;;;;;;6119661;29;20036;-73
2023/03/19 14:42:25;;;;;;;2.70;1.35;;;20.80;40.10;;;;;;6198462;28;20470;-74
2023/03/19 14:45:44;;;;;;;2.38;1.15;;;20.90;40.00;;;;;;6186164;28;20044;-72
2023/03/19 14:49:04;;;;;;;;;;;21.00;39.80;;;;;;6177230;28;20023;-73
2023/03/19 14:52:15;;;;;;;2.05;1.20;;;21.10;39.60;;;;;;6188289;28;19920;-74
2023/03/19 14:55:16;;;;;;;2.95;1.27;;;21.20;39.50;;;;;;6217304;28;20050;-73
2023/03/19 14:58:21;;;;;;;1.45;1.13;;;21.20;39.40;;;;;;6218309;28;20064;-74
2023/03/19 15:01:26;;;;;;;3.40;1.20;;;21.30;39.60;;;;;;6217039;28;20450;-74
2023/03/19 15:04:27;;;;;;;8.15;1.60;;;21.40;39.40;;;;;;6200885;28;20060;-73
2023/03/19 15:07:39;;;;;;;6.60;1.10;;;21.40;39.40;;;;;;6217067;28;20060;-73
2023/03/19 15:11:15;;;;;;;2.30;1.50;;;21.50;39.30;;;;;;6200202;28;20030;-74
2023/03/19 15:14:27;;;;;;;2.80;1.40;;;21.40;39.20;;;;;;6200859;28;20176;-74
2023/03/19 15:17:30;;;;;;;4.00;1.38;;;21.30;39.40;;;;;;6218323;28;20069;-74
2023/03/19 15:20:41;;;;;;;3.58;1.20;;;21.20;39.50;;;;;;6217094;28;20509;-72
2023/03/19 15:23:45;;;;;;;2.08;1.02;;;21.10;39.60;;;;;;6218717;28;20121;-74
2023/03/19 15:26:46;;;;;;;4.55;1.10;;;21.00;39.70;;;;;;6205901;28;20110;-74
2023/03/19 15:29:48;;;;;;;2.65;1.52;;;21.00;39.80;;;;;;6197545;28;20034;-74
2023/03/19 15:32:49;;;;;;;2.28;1.20;;;20.90;39.90;;;;;;6218113;28;20386;-74
2023/03/19 15:35:55;;;;;;;3.30;1.35;;;20.90;40.00;;;;;;6216412;28;20062;-74
2023/03/19 15:39:06;;;;;;;5.28;1.10;;;20.90;40.00;;;;;;6218499;28;20068;-74
2023/03/19 15:42:08;;;;;;;4.53;1.23;;;21.00;40.00;;;;;;6217132;28;20030;-74
2023/03/19 15:45:13;;;;;;;2.75;1.13;;;21.10;39.80;;;;;;6200287;28;20030;-73
2023/03/19 15:48:18;;;;;;;1.85;1.40;;;21.10;39.70;;;;;;6218111;28;20108;-73
2023/03/19 15:51:21;;;;;;;2.83;1.25;;;21.10;39.80;;;;;;6199778;28;20034;-73
2023/03/19 15:54:22;;;;;;;3.63;1.42;;;21.10;39.90;;;;;;6217113;28;20042;-71
2023/03/19 15:57:24;;;;;;;2.45;1.27;;;21.10;40.00;;;;;;6217982;28;20371;-72
2023/03/19 16:00:25;;;;;;;1.80;1.23;;;21.00;40.10;;;;;;6218787;28;20216;-73
2023/03/19 16:03:33;;;;;;;2.70;1.30;;;21.00;40.30;;;;;;6220946;28;20143;-73
2023/03/19 16:06:39;;;;;;;4.40;1.10;;;20.90;40.50;;;;;;6218592;28;20033;-72
2023/03/19 16:09:40;;;;;;;4.25;1.13;;;20.80;40.60;;;;;;6216104;28;20100;-73